Time;durP1;ratioP1;P1;durP2;ratioP2;P2;SDS_P1;SDS_P2;PMS_P1;PMS_P2;Temp;Humidity;BMP_temperature;BMP_pressure;BME280_temperature;BME280_humidity;BME280_pressure;Samples;Min_cycle;Max_cycle;Signal;HPM_P1;HPM_P2
2022/06/26 00:00:47;;;;;;;5.00;4.60;;;20.90;99.90;;;;;;5029600;28;20285;-40
2022/06/26 00:03:12;;;;;;;7.70;6.63;;;21.00;99.90;;;;;;5030007;28;20190;-39
2022/06/26 00:05:38;;;;;;;7.47;6.70;;;21.10;99.90;;;;;;5028738;28;20269;-40
2022/06/26 00:08:05;;;;;;;9.33;7.40;;;21.00;99.90;;;;;;5029434;28;20263;-40
2022/06/26 00:10:31;;;;;;;8.77;7.97;;;20.90;99.90;;;;;;5029779;28;20511;-41
2022/06/26 00:12:57;;;;;;;9.23;8.43;;;20.90;99.90;;;;;;5029845;28;20508;-40
2022/06/26 00:15:22;;;;;;;10.10;9.10;;;20.90;99.90;;;;;;5029700;28;20804;-40
2022/06/26 00:17:48;;;;;;;11.73;10.83;;;20.80;99.90;;;;;;5029257;28;20236;-38
2022/06/26 00:20:14;;;;;;;12.60;10.07;;;20.80;99.90;;;;;;5029879;28;20253;-37
2022/06/26 00:22:40;;;;;;;11.37;10.40;;;20.70;99.90;;;;;;5029763;28;20197;-38
2022/06/26 00:25:08;;;;;;;12.00;10.90;;;20.60;99.90;;;;;;5029796;28;20186;-38
2022/06/26 00:27:34;;;;;;;11.67;10.67;;;20.60;99.90;;;;;;5029099;28;20519;-38
2022/06/26 00:30:01;;;;;;;11.00;9.87;;;20.60;99.90;;;;;;5029490;28;20508;-38
2022/06/26 00:32:26;;;;;;;17.67;10.87;;;20.40;99.90;;;;;;5029868;28;20421;-37
2022/06/26 00:34:52;;;;;;;12.50;11.30;;;20.40;99.90;;;;;;5029930;28;21001;-39
2022/06/26 00:37:18;;;;;;;11.63;10.53;;;20.40;99.90;;;;;;5029177;28;20717;-38
2022/06/26 00:39:43;;;;;;;12.00;10.90;;;20.40;99.90;;;;;;5029651;28;20186;-38
2022/06/26 00:42:09;;;;;;;12.00;10.90;;;20.40;99.90;;;;;;5029686;28;20190;-38
2022/06/26 00:44:35;;;;;;;12.10;10.90;;;20.30;99.90;;;;;;5028558;28;20201;-39
2022/06/26 00:47:01;;;;;;;11.20;10.20;;;20.30;99.90;;;;;;5028972;28;20229;-38
2022/06/26 00:49:26;;;;;;;12.43;11.33;;;20.20;99.90;;;;;;5029605;28;20417;-38
2022/06/26 00:51:54;;;;;;;10.67;9.67;;;20.20;99.90;;;;;;5029696;28;20659;-41
2022/06/26 00:54:23;;;;;;;10.37;9.57;;;20.20;99.90;;;;;;5029540;28;20182;-38
2022/06/26 00:56:49;;;;;;;10.30;9.43;;;20.10;99.90;;;;;;5028891;28;20426;-41
2022/06/26 00:59:15;;;;;;;9.87;9.10;;;20.10;99.90;;;;;;5029191;28;20789;-37
2022/06/26 01:01:41;;;;;;;12.20;11.03;;;20.20;99.90;;;;;;5029585;28;20193;-38
2022/06/26 01:04:06;;;;;;;10.20;9.27;;;20.10;99.90;;;;;;5027961;28;20421;-38
2022/06/26 01:06:32;;;;;;;9.60;8.67;;;20.10;99.90;;;;;;5030429;28;20440;-38
2022/06/26 01:08:58;;;;;;;9.17;8.37;;;20.20;99.90;;;;;;5033064;28;20262;-39
2022/06/26 01:11:25;;;;;;;8.07;7.37;;;20.20;99.90;;;;;;5033203;28;20429;-38
2022/06/26 01:13:54;;;;;;;9.87;8.90;;;20.20;99.90;;;;;;5032978;28;20447;-39
2022/06/26 01:16:21;;;;;;;19.37;11.07;;;20.10;99.90;;;;;;5032990;28;20417;-38
2022/06/26 01:18:50;;;;;;;9.50;8.80;;;20.10;99.90;;;;;;5031672;28;20425;-40
2022/06/26 01:21:18;;;;;;;9.90;8.37;;;20.10;99.90;;;;;;5032739;28;20413;-38
2022/06/26 01:23:44;;;;;;;9.20;8.40;;;20.00;99.90;;;;;;5032891;28;20958;-38
2022/06/26 01:26:10;;;;;;;9.53;8.57;;;20.00;99.90;;;;;;5032709;28;20479;-38
2022/06/26 01:28:36;;;;;;;10.13;9.33;;;20.00;99.90;;;;;;5032130;28;20946;-38
2022/06/26 01:31:02;;;;;;;9.70;8.90;;;20.00;99.90;;;;;;5032731;28;20504;-37
2022/06/26 01:33:28;;;;;;;9.00;8.20;;;19.90;99.90;;;;;;5036848;28;20190;-38
2022/06/26 01:35:54;;;;;;;10.90;9.90;;;19.90;99.90;;;;;;5032629;28;20603;-38
2022/06/26 01:38:22;;;;;;;9.20;8.40;;;19.80;99.90;;;;;;5030866;28;20463;-37
2022/06/26 01:40:51;;;;;;;9.97;9.03;;;19.80;99.90;;;;;;5032431;28;20197;-38
2022/06/26 01:43:20;;;;;;;10.00;9.00;;;19.80;99.90;;;;;;5032675;28;20425;-38
2022/06/26 01:45:53;;;;;;;10.90;10.00;;;19.70;99.90;;;;;;5031058;28;20946;-38
2022/06/26 01:48:20;;;;;;;9.80;9.00;;;19.60;99.90;;;;;;5031705;28;20511;-39
2022/06/26 01:50:47;;;;;;;10.70;9.80;;;19.50;99.90;;;;;;5032194;28;20460;-38
2022/06/26 01:53:14;;;;;;;11.10;9.20;;;19.40;99.90;;;;;;5032428;28;20823;-38
2022/06/26 01:55:40;;;;;;;9.43;8.63;;;19.30;99.90;;;;;;5032548;28;21148;-38
2022/06/26 01:58:07;;;;;;;9.93;8.53;;;19.40;99.90;;;;;;5030384;28;20431;-38
2022/06/26 02:00:36;;;;;;;9.40;8.50;;;19.30;99.90;;;;;;5032185;28;20798;-40
2022/06/26 02:03:02;;;;;;;10.03;9.20;;;19.30;99.90;;;;;;5032294;28;21026;-38
2022/06/26 02:05:28;;;;;;;10.37;9.47;;;19.30;99.90;;;;;;5032149;28;20945;-37
2022/06/26 02:07:54;;;;;;;9.83;9.00;;;19.30;99.90;;;;;;5031229;28;20460;-40
2022/06/26 02:15:51;;;;;;;10.33;9.53;;;19.10;99.90;;;;;;5031897;28;20421;-38
2022/06/26 02:18:17;;;;;;;9.07;8.27;;;19.10;99.90;;;;;;5030582;28;20991;-38
2022/06/26 02:20:43;;;;;;;8.43;7.83;;;19.20;99.90;;;;;;5031737;28;20440;-38
2022/06/26 02:23:09;;;;;;;9.03;8.23;;;19.20;99.90;;;;;;5031770;28;20425;-38
2022/06/26 02:25:35;;;;;;;9.40;8.60;;;19.20;99.90;;;;;;5031693;28;20212;-38
2022/06/26 02:28:00;;;;;;;10.23;8.80;;;19.10;99.90;;;;;;5031049;28;20963;-40
2022/06/26 02:30:26;;;;;;;9.70;8.93;;;19.00;99.90;;;;;;5031692;28;20425;-38
2022/06/26 02:32:52;;;;;;;9.70;8.90;;;19.10;99.90;;;;;;5031477;28;20186;-38
2022/06/26 02:35:18;;;;;;;10.00;8.43;;;19.10;99.90;;;;;;5031735;28;20256;-38
2022/06/26 02:37:44;;;;;;;10.20;9.20;;;19.20;99.90;;;;;;5031043;28;20448;-37
2022/06/26 02:40:10;;;;;;;9.30;8.60;;;19.20;99.90;;;;;;5031597;28;20900;-39
2022/06/26 02:42:36;;;;;;;8.87;8.10;;;19.20;99.90;;;;;;5031495;28;20225;-39
2022/06/26 02:45:03;;;;;;;8.93;8.03;;;19.20;99.90;;;;;;5029918;28;20457;-38
2022/06/26 02:47:29;;;;;;;8.57;7.87;;;19.10;99.90;;;;;;5030434;28;20240;-37
2022/06/26 02:49:55;;;;;;;8.93;8.13;;;19.00;99.90;;;;;;5031429;28;20461;-38
2022/06/26 02:52:20;;;;;;;8.33;7.63;;;19.00;99.90;;;;;;5030641;28;20522;-38
2022/06/26 02:54:46;;;;;;;9.23;8.33;;;19.00;99.90;;;;;;5031238;28;20174;-38
2022/06/26 02:57:12;;;;;;;8.97;8.17;;;19.00;99.90;;;;;;5030649;28;20212;-39
2022/06/26 02:59:38;;;;;;;7.80;7.10;;;19.10;99.90;;;;;;5031026;28;20210;-38
2022/06/26 03:02:04;;;;;;;8.10;7.50;;;19.00;99.90;;;;;;5031081;28;20491;-39
2022/06/26 03:04:29;;;;;;;8.57;7.83;;;19.00;99.90;;;;;;5030878;28;20228;-38
2022/06/26 03:06:55;;;;;;;8.47;7.77;;;19.00;99.90;;;;;;5030229;28;20552;-39
2022/06/26 03:09:21;;;;;;;8.27;7.57;;;19.00;99.90;;;;;;5030963;28;20269;-38
2022/06/26 03:11:47;;;;;;;7.93;7.23;;;19.00;99.90;;;;;;5029712;28;20182;-41
2022/06/26 03:14:12;;;;;;;8.13;7.43;;;18.90;99.90;;;;;;5030837;28;20252;-38
2022/06/26 03:16:38;;;;;;;8.90;8.10;;;18.90;99.90;;;;;;5030048;28;20247;-38
2022/06/26 03:19:04;;;;;;;11.03;8.80;;;18.90;99.90;;;;;;5030609;28;20661;-38
2022/06/26 03:21:30;;;;;;;9.63;8.83;;;18.90;99.90;;;;;;5030595;28;20198;-37
2022/06/26 03:24:01;;;;;;;9.17;8.40;;;18.90;99.90;;;;;;5030801;28;20221;-38
2022/06/26 03:26:35;;;;;;;9.40;8.60;;;18.80;99.90;;;;;;5030638;28;20840;-38
2022/06/26 03:29:03;;;;;;;8.13;7.43;;;18.90;99.90;;;;;;5030060;28;20417;-37
2022/06/26 03:31:28;;;;;;;8.30;7.50;;;18.90;99.90;;;;;;5029890;28;20475;-38
2022/06/26 03:33:55;;;;;;;8.97;8.17;;;18.80;99.90;;;;;;5030637;28;20830;-37
2022/06/26 03:36:22;;;;;;;10.33;9.43;;;18.70;99.90;;;;;;5030595;28;20228;-38
2022/06/26 03:38:48;;;;;;;10.53;9.63;;;18.60;99.90;;;;;;5029782;28;20432;-37
2022/06/26 03:41:14;;;;;;;12.10;10.80;;;18.50;99.90;;;;;;5030466;28;20429;-37
2022/06/26 03:43:40;;;;;;;11.00;9.90;;;18.50;99.90;;;;;;5030331;28;20482;-38
2022/06/26 03:46:06;;;;;;;12.53;11.33;;;18.50;99.90;;;;;;5028776;28;20186;-38
2022/06/26 03:48:32;;;;;;;11.90;10.80;;;18.50;99.90;;;;;;5029624;28;20464;-38
2022/06/26 03:50:58;;;;;;;12.10;10.90;;;18.60;99.90;;;;;;5030300;28;20423;-38
2022/06/26 03:53:24;;;;;;;12.37;11.07;;;18.60;99.90;;;;;;5012609;28;20189;-38
2022/06/26 03:55:50;;;;;;;12.87;11.67;;;18.60;99.90;;;;;;5030209;28;20428;-40
2022/06/26 03:58:16;;;;;;;14.23;12.10;;;18.60;99.90;;;;;;5029342;28;20421;-39
2022/06/26 04:00:43;;;;;;;13.27;11.93;;;18.70;99.90;;;;;;5029821;28;21033;-38
2022/06/26 04:03:08;;;;;;;13.50;12.20;;;18.70;99.90;;;;;;5037913;28;20879;-38
2022/06/26 04:05:35;;;;;;;14.07;12.77;;;18.70;99.90;;;;;;5030008;28;20476;-38
2022/06/26 04:08:01;;;;;;;13.50;12.27;;;18.80;99.90;;;;;;5029236;28;20268;-38
2022/06/26 04:10:28;;;;;;;12.13;11.03;;;18.80;99.90;;;;;;5030040;28;20421;-38
2022/06/26 04:12:53;;;;;;;13.37;11.97;;;18.80;99.90;;;;;;5035638;28;20539;-38
2022/06/26 04:15:19;;;;;;;12.07;10.87;;;18.80;99.90;;;;;;5022259;28;21122;-40
2022/06/26 04:17:45;;;;;;;11.67;10.67;;;18.80;99.90;;;;;;5029461;28;20280;-38
2022/06/26 04:20:11;;;;;;;11.93;10.77;;;18.80;99.90;;;;;;5029925;28;21123;-38
2022/06/26 04:22:37;;;;;;;12.17;11.00;;;18.80;99.90;;;;;;5029860;28;20182;-39
2022/06/26 04:25:04;;;;;;;11.63;9.83;;;18.80;99.90;;;;;;5029772;28;20436;-38
2022/06/26 04:27:30;;;;;;;12.03;9.27;;;18.80;99.90;;;;;;5026275;28;20500;-38
2022/06/26 04:29:56;;;;;;;11.13;9.93;;;18.80;99.90;;;;;;5027285;28;20477;-38
2022/06/26 04:32:21;;;;;;;10.20;9.20;;;18.90;99.90;;;;;;5017497;28;20191;-37
2022/06/26 04:34:47;;;;;;;10.10;9.13;;;18.90;99.90;;;;;;5028502;28;20425;-38
2022/06/26 04:37:13;;;;;;;9.50;8.70;;;18.90;99.90;;;;;;5029124;28;20679;-38
2022/06/26 04:39:39;;;;;;;9.53;8.63;;;19.00;99.90;;;;;;5028507;28;20194;-37
2022/06/26 04:42:05;;;;;;;9.40;8.20;;;19.10;99.90;;;;;;5031329;28;20240;-41
2022/06/26 04:44:31;;;;;;;9.87;7.73;;;19.10;99.90;;;;;;5032332;28;20190;-38
2022/06/26 04:46:56;;;;;;;7.73;6.93;;;19.10;99.90;;;;;;5032934;28;20467;-39
2022/06/26 04:49:22;;;;;;;7.23;6.63;;;19.10;99.90;;;;;;5033624;28;20201;-39
2022/06/26 04:51:48;;;;;;;7.70;7.10;;;19.00;99.90;;;;;;5033587;28;20183;-38
2022/06/26 04:54:14;;;;;;;7.47;6.77;;;19.10;99.90;;;;;;5032245;28;20256;-37
2022/06/26 04:56:39;;;;;;;7.37;6.73;;;19.10;99.90;;;;;;5032875;28;20213;-38
2022/06/26 04:59:06;;;;;;;6.77;6.17;;;19.10;99.90;;;;;;5033213;28;20194;-38
2022/06/26 05:01:32;;;;;;;6.67;6.10;;;19.10;99.90;;;;;;5033304;28;20183;-39
2022/06/26 05:03:58;;;;;;;7.70;6.37;;;19.20;99.90;;;;;;5033310;28;20520;-38
2022/06/26 05:06:24;;;;;;;7.57;6.70;;;19.20;99.90;;;;;;5033255;28;20504;-38
2022/06/26 05:08:51;;;;;;;7.40;6.40;;;19.20;99.90;;;;;;5032628;28;20716;-38
2022/06/26 05:11:18;;;;;;;6.80;6.30;;;19.30;99.90;;;;;;5033043;28;20786;-38
2022/06/26 05:13:44;;;;;;;7.20;6.57;;;19.40;99.90;;;;;;5033253;28;20437;-37
2022/06/26 05:16:10;;;;;;;8.00;6.40;;;19.60;99.90;;;;;;5033105;28;21008;-38
2022/06/26 05:18:36;;;;;;;7.80;6.83;;;19.70;99.90;;;;;;5032379;28;20225;-40
2022/06/26 05:21:02;;;;;;;7.03;6.30;;;19.80;99.90;;;;;;5032991;28;20225;-40
2022/06/26 05:23:27;;;;;;;8.50;6.63;;;19.80;99.90;;;;;;5033032;28;20182;-38
2022/06/26 05:25:53;;;;;;;7.10;6.40;;;19.80;99.90;;;;;;5032728;28;20421;-38
2022/06/26 05:28:19;;;;;;;8.23;7.43;;;19.60;99.90;;;;;;5032239;28;20248;-38
2022/06/26 05:30:45;;;;;;;9.13;8.10;;;19.60;99.90;;;;;;5031606;28;20642;-37
2022/06/26 05:33:11;;;;;;;8.33;7.50;;;19.50;99.90;;;;;;5032966;28;20194;-37
2022/06/26 05:35:37;;;;;;;7.90;7.20;;;19.50;99.90;;;;;;5032661;28;20417;-38
2022/06/26 05:38:04;;;;;;;8.33;7.50;;;19.40;99.90;;;;;;5032184;28;20194;-38
2022/06/26 05:40:30;;;;;;;8.00;7.20;;;19.40;99.90;;;;;;5032347;28;20429;-38
2022/06/26 05:42:57;;;;;;;7.90;7.20;;;19.40;99.90;;;;;;5032713;28;21138;-39
2022/06/26 05:45:23;;;;;;;8.73;7.93;;;19.40;99.90;;;;;;5029714;28;20239;-38
2022/06/26 05:47:49;;;;;;;8.53;7.83;;;19.40;99.90;;;;;;5030623;28;20465;-39
2022/06/26 05:50:16;;;;;;;7.33;6.70;;;19.40;99.90;;;;;;5032347;28;20436;-38
2022/06/26 05:52:41;;;;;;;8.23;7.50;;;19.30;99.90;;;;;;5031525;28;20491;-38
2022/06/26 05:55:08;;;;;;;7.30;6.70;;;19.30;99.90;;;;;;5032125;28;20432;-37
2022/06/26 05:57:34;;;;;;;6.70;6.10;;;19.30;99.90;;;;;;5031723;28;20178;-39
2022/06/26 05:59:59;;;;;;;9.67;6.23;;;19.30;99.90;;;;;;5032058;28;20451;-37
2022/06/26 06:02:25;;;;;;;6.00;5.50;;;19.30;99.90;;;;;;5032305;28;20190;-38
2022/06/26 06:04:51;;;;;;;5.23;4.73;;;19.30;99.90;;;;;;5031988;28;20197;-38
2022/06/26 06:07:17;;;;;;;5.77;5.27;;;19.20;99.90;;;;;;5031469;28;20544;-38
2022/06/26 06:09:43;;;;;;;4.67;4.27;;;19.20;99.90;;;;;;5031905;28;20559;-38
2022/06/26 06:12:09;;;;;;;5.17;4.67;;;19.30;99.90;;;;;;5032065;28;20429;-38
2022/06/26 06:14:35;;;;;;;5.17;4.77;;;19.30;99.90;;;;;;5032189;28;20197;-39
2022/06/26 06:17:35;;;;;;;4.40;3.97;;;19.30;99.90;;;;;;5031560;28;20183;-38
2022/06/26 06:19:46;;;;;;;5.47;5.07;;;19.30;99.90;;;;;;5031780;28;20451;-38
2022/06/26 06:22:12;;;;;;;5.00;4.50;;;19.30;99.90;;;;;;5031759;28;20924;-39
2022/06/26 06:24:38;;;;;;;5.90;4.60;;;19.40;99.90;;;;;;5031812;28;20202;-39
2022/06/26 06:27:04;;;;;;;5.00;4.60;;;19.30;99.90;;;;;;5031225;28;20260;-38
2022/06/26 06:29:29;;;;;;;5.37;4.87;;;19.30;99.90;;;;;;5030216;28;20654;-40
2022/06/26 06:31:55;;;;;;;5.83;5.33;;;19.30;99.90;;;;;;5031874;28;20425;-38
2022/06/26 06:34:21;;;;;;;9.30;7.10;;;19.30;99.90;;;;;;5031479;28;20680;-40
2022/06/26 06:36:46;;;;;;;8.67;7.87;;;19.20;99.90;;;;;;5030971;28;20194;-38
2022/06/26 06:39:12;;;;;;;7.37;6.67;;;19.20;99.90;;;;;;5031651;28;20196;-37
2022/06/26 06:41:38;;;;;;;6.70;6.10;;;19.20;99.90;;;;;;5031608;28;20170;-38
2022/06/26 06:44:04;;;;;;;6.70;6.07;;;19.20;99.90;;;;;;5030228;28;20301;-39
2022/06/26 06:46:29;;;;;;;7.03;6.10;;;19.20;99.90;;;;;;5031224;28;20183;-39
2022/06/26 06:48:55;;;;;;;6.70;6.20;;;19.20;99.90;;;;;;5030540;28;20425;-40
2022/06/26 06:51:21;;;;;;;6.23;5.73;;;19.20;99.90;;;;;;5031087;28;20193;-41
2022/06/26 06:53:47;;;;;;;7.40;5.20;;;19.20;99.90;;;;;;5031551;28;20197;-38
2022/06/26 06:56:13;;;;;;;5.60;5.10;;;19.20;99.90;;;;;;5031198;28;20189;-39
2022/06/26 06:58:38;;;;;;;4.73;4.33;;;19.20;99.90;;;;;;5030709;28;20425;-38
2022/06/26 07:01:04;;;;;;;4.20;3.43;;;19.30;99.90;;;;;;5030892;28;20198;-38
2022/06/26 07:03:30;;;;;;;4.77;4.37;;;19.20;99.90;;;;;;5030890;28;20202;-39
2022/06/26 07:05:56;;;;;;;8.17;6.70;;;19.30;99.90;;;;;;5029518;28;20810;-38
2022/06/26 07:08:21;;;;;;;6.10;5.40;;;19.40;99.90;;;;;;5030516;28;20214;-38
2022/06/26 07:10:48;;;;;;;8.10;7.10;;;19.50;99.90;;;;;;5030740;28;20221;-38
2022/06/26 07:13:14;;;;;;;9.33;8.40;;;19.80;99.90;;;;;;5030744;28;20421;-38
2022/06/26 07:15:40;;;;;;;7.67;7.17;;;20.00;99.90;;;;;;5029686;28;20206;-38
2022/06/26 07:18:06;;;;;;;8.50;7.77;;;20.30;99.90;;;;;;5029420;28;20202;-38
2022/06/26 07:20:32;;;;;;;10.27;9.47;;;20.50;99.90;;;;;;5030440;28;20238;-38
2022/06/26 07:22:57;;;;;;;9.17;8.47;;;20.70;99.90;;;;;;5034063;28;20676;-38
2022/06/26 07:25:23;;;;;;;9.30;8.53;;;20.90;99.90;;;;;;5036852;28;20981;-38
2022/06/26 07:27:50;;;;;;;9.57;8.87;;;21.00;99.90;;;;;;5022183;28;20250;-38
2022/06/26 07:30:16;;;;;;;7.10;6.50;;;20.90;99.90;;;;;;5030051;28;20285;-39
2022/06/26 07:32:42;;;;;;;7.50;6.67;;;20.90;99.90;;;;;;5030718;28;20513;-38
2022/06/26 07:35:08;;;;;;;5.40;4.90;;;21.00;99.90;;;;;;5030380;28;20496;-38
2022/06/26 07:37:34;;;;;;;4.53;4.10;;;21.10;99.90;;;;;;5029951;28;20453;-40
2022/06/26 07:39:59;;;;;;;3.30;3.00;;;21.20;99.90;;;;;;5028985;28;20891;-39
2022/06/26 07:42:25;;;;;;;3.00;2.70;;;21.50;99.90;;;;;;5029229;28;20612;-38
2022/06/26 07:44:51;;;;;;;2.50;2.37;;;21.60;99.90;;;;;;5028858;28;20417;-40
2022/06/26 07:47:17;;;;;;;2.63;2.43;;;21.80;99.90;;;;;;5029095;28;20217;-39
2022/06/26 07:49:43;;;;;;;2.97;2.43;;;22.00;99.90;;;;;;5025713;28;20192;-39
2022/06/26 07:52:09;;;;;;;4.67;2.73;;;22.10;99.90;;;;;;5030220;28;20190;-38
2022/06/26 07:54:34;;;;;;;3.47;3.10;;;22.20;99.90;;;;;;5028797;28;20186;-38
2022/06/26 07:57:00;;;;;;;4.10;3.03;;;22.10;99.90;;;;;;5029646;28;20287;-38
2022/06/26 07:59:26;;;;;;;3.40;2.97;;;22.00;99.90;;;;;;5030018;28;20683;-38
2022/06/26 08:01:52;;;;;;;3.90;3.27;;;21.80;99.90;;;;;;5028678;28;20218;-39
2022/06/26 08:04:17;;;;;;;3.60;3.33;;;21.60;99.90;;;;;;5029586;28;20682;-38
2022/06/26 08:06:43;;;;;;;3.37;3.07;;;21.40;99.90;;;;;;5029425;28;20208;-39
2022/06/26 08:09:09;;;;;;;7.00;4.27;;;21.30;99.90;;;;;;5030056;28;20190;-39
2022/06/26 08:11:35;;;;;;;4.33;3.93;;;21.30;99.90;;;;;;5029863;28;20807;-38
2022/06/26 08:14:01;;;;;;;5.70;4.47;;;21.20;99.90;;;;;;5016011;28;20218;-39
2022/06/26 08:16:26;;;;;;;5.20;4.80;;;21.10;99.90;;;;;;5024535;28;20236;-39
2022/06/26 08:18:52;;;;;;;5.70;4.87;;;21.10;99.90;;;;;;5035581;28;20734;-39
2022/06/26 08:24:02;;;;;;;5.07;4.63;;;21.10;99.90;;;;;;5034781;28;20217;-38
2022/06/26 08:26:28;;;;;;;5.33;4.60;;;21.00;99.90;;;;;;5029669;28;20465;-38
2022/06/26 08:28:54;;;;;;;5.07;4.77;;;20.90;99.90;;;;;;5039896;28;20472;-41
2022/06/26 08:31:20;;;;;;;7.90;4.33;;;20.90;99.90;;;;;;5025547;28;20218;-39
2022/06/26 08:33:45;;;;;;;5.73;4.87;;;21.00;99.90;;;;;;5040989;28;20210;-39
2022/06/26 08:36:11;;;;;;;4.47;4.17;;;21.00;99.90;;;;;;5034816;28;20214;-39
2022/06/26 08:38:39;;;;;;;4.40;4.10;;;21.00;99.90;;;;;;5040368;28;20252;-41
2022/06/26 08:41:07;;;;;;;7.40;4.90;;;21.00;99.90;;;;;;5034929;28;20237;-38
2022/06/26 08:43:33;;;;;;;6.00;5.50;;;20.90;99.90;;;;;;5032485;28;20955;-38
2022/06/26 08:46:03;;;;;;;4.77;4.37;;;20.90;99.90;;;;;;5030775;28;20457;-39
2022/06/26 08:48:35;;;;;;;4.90;4.50;;;20.90;99.90;;;;;;5027056;28;20477;-40
2022/06/26 08:51:02;;;;;;;4.53;4.03;;;20.90;99.90;;;;;;5035199;28;20856;-40
2022/06/26 08:53:28;;;;;;;4.33;3.93;;;20.90;99.90;;;;;;5039234;28;20531;-38
2022/06/26 08:55:55;;;;;;;3.60;3.30;;;20.90;99.90;;;;;;5035323;28;20826;-39
2022/06/26 08:58:20;;;;;;;3.10;2.83;;;20.90;99.90;;;;;;5037857;28;20439;-42
2022/06/26 09:00:46;;;;;;;3.07;2.73;;;20.80;99.90;;;;;;5033489;28;20573;-39
2022/06/26 09:03:13;;;;;;;2.73;2.50;;;20.80;99.90;;;;;;5028864;28;20225;-38
2022/06/26 09:05:40;;;;;;;3.50;3.00;;;20.80;99.90;;;;;;5025993;28;20260;-39
2022/06/26 09:08:15;;;;;;;3.63;3.20;;;20.80;99.90;;;;;;5029828;28;20571;-38
2022/06/26 09:10:44;;;;;;;3.80;3.40;;;20.70;99.90;;;;;;5027889;28;20453;-41
2022/06/26 09:13:10;;;;;;;3.77;3.00;;;20.70;99.90;;;;;;5036254;28;20449;-40
2022/06/26 09:15:39;;;;;;;2.80;2.03;;;20.60;99.90;;;;;;5021446;28;20464;-38
2022/06/26 09:18:07;;;;;;;2.63;2.43;;;20.60;99.90;;;;;;5019975;28;20210;-39
2022/06/26 09:20:35;;;;;;;2.10;1.90;;;20.60;99.90;;;;;;5014437;28;20453;-38
2022/06/26 09:23:02;;;;;;;2.33;2.10;;;20.50;99.90;;;;;;5024706;28;20510;-38
2022/06/26 09:25:35;;;;;;;2.37;2.13;;;20.50;99.90;;;;;;5025042;28;20882;-37
2022/06/26 09:28:09;;;;;;;3.10;2.23;;;20.40;99.90;;;;;;5028714;28;20472;-38
2022/06/26 09:30:45;;;;;;;2.20;2.00;;;20.40;99.90;;;;;;5029431;28;20472;-38
2022/06/26 09:33:11;;;;;;;2.47;1.73;;;20.30;99.90;;;;;;5032703;28;20535;-38
2022/06/26 09:35:37;;;;;;;5.43;2.60;;;20.40;99.90;;;;;;5022929;28;20533;-37
2022/06/26 09:38:03;;;;;;;2.37;2.13;;;20.40;99.90;;;;;;5043264;28;20243;-38
2022/06/26 09:40:29;;;;;;;2.23;1.97;;;20.30;99.90;;;;;;5026242;28;20231;-37
2022/06/26 09:42:56;;;;;;;2.13;1.83;;;20.30;99.90;;;;;;5027247;28;20971;-37
2022/06/26 09:45:22;;;;;;;2.93;1.87;;;20.30;99.90;;;;;;5026077;28;20466;-37
2022/06/26 09:47:48;;;;;;;2.10;1.77;;;20.30;99.90;;;;;;5028187;28;20472;-37
2022/06/26 09:50:14;;;;;;;2.60;1.73;;;20.30;99.90;;;;;;5031453;28;20605;-37
2022/06/26 09:52:42;;;;;;;3.30;2.00;;;20.30;99.90;;;;;;5029846;28;20487;-38
2022/06/26 09:55:09;;;;;;;9.67;2.87;;;20.30;99.90;;;;;;5029755;28;20214;-38
2022/06/26 09:57:36;;;;;;;2.80;1.93;;;20.40;99.90;;;;;;5035228;28;20443;-38
2022/06/26 10:00:04;;;;;;;4.67;1.87;;;20.40;99.90;;;;;;5033100;28;20955;-38
2022/06/26 10:06:35;;;;;;;2.27;1.87;;;20.40;99.90;;;;;;5049090;28;20478;-38
2022/06/26 10:08:31;;;;;;;3.00;2.30;;;20.40;99.90;;;;;;5017540;28;20487;-37
2022/06/26 10:10:59;;;;;;;3.47;1.97;;;20.40;99.90;;;;;;5031013;28;20946;-37
2022/06/26 10:13:26;;;;;;;2.90;1.60;;;20.40;99.90;;;;;;5031929;28;20915;-38
2022/06/26 10:15:57;;;;;;;1.63;1.53;;;20.50;99.90;;;;;;5032006;28;20421;-37
2022/06/26 10:19:09;;;;;;;3.70;2.50;;;20.30;99.90;;;;;;5031645;28;20429;-39
2022/06/26 10:21:37;;;;;;;2.00;1.83;;;20.30;99.90;;;;;;5028308;28;20800;-37
2022/06/26 10:24:05;;;;;;;3.00;1.87;;;20.30;99.90;;;;;;5032089;28;20454;-38
2022/06/26 10:26:31;;;;;;;2.70;1.77;;;20.30;99.90;;;;;;5031662;28;20422;-40
2022/06/26 10:28:57;;;;;;;2.90;1.90;;;20.30;99.90;;;;;;5031677;28;20874;-39
2022/06/26 10:31:23;;;;;;;1.87;1.60;;;20.40;99.90;;;;;;5031765;28;20416;-40
2022/06/26 10:33:49;;;;;;;2.73;2.13;;;20.50;99.90;;;;;;5031738;28;20217;-38
2022/06/26 10:36:25;;;;;;;3.00;1.90;;;20.60;99.90;;;;;;5031539;28;20429;-38
2022/06/26 10:39:02;;;;;;;1.73;1.63;;;20.60;99.90;;;;;;5030597;28;20429;-37
2022/06/26 10:45:11;;;;;;;3.60;1.90;;;20.60;99.90;;;;;;5019121;28;20425;-38
2022/06/26 10:47:43;;;;;;;2.37;1.80;;;20.60;99.90;;;;;;5026903;28;20498;-37
2022/06/26 10:50:32;;;;;;;1.83;1.73;;;20.60;99.90;;;;;;5031465;28;20532;-38
2022/06/26 10:53:22;;;;;;;2.30;2.07;;;20.60;99.90;;;;;;5031414;28;20413;-41
2022/06/26 10:55:52;;;;;;;2.17;1.80;;;20.50;99.90;;;;;;5031411;28;20432;-38
2022/06/26 10:58:20;;;;;;;3.00;2.50;;;20.50;99.90;;;;;;5030598;28;20429;-38
2022/06/26 11:00:46;;;;;;;2.83;2.03;;;20.40;99.90;;;;;;5031068;28;21005;-38
2022/06/26 11:03:14;;;;;;;3.23;2.53;;;20.40;99.90;;;;;;5031196;28;20417;-38
2022/06/26 11:05:49;;;;;;;2.83;2.10;;;20.40;99.90;;;;;;5030971;28;20520;-40
2022/06/26 11:08:22;;;;;;;2.60;1.70;;;20.40;99.90;;;;;;5030488;28;20474;-38
2022/06/26 11:10:48;;;;;;;1.80;1.70;;;20.40;99.90;;;;;;5031162;28;20674;-39
2022/06/26 11:13:14;;;;;;;3.23;1.87;;;20.50;99.90;;;;;;5031123;28;20837;-41
2022/06/26 11:15:39;;;;;;;2.40;2.20;;;20.50;99.90;;;;;;5030847;28;20218;-39
2022/06/26 11:18:06;;;;;;;3.27;2.07;;;20.60;99.90;;;;;;5028923;28;20433;-38
2022/06/26 11:20:50;;;;;;;2.40;2.20;;;20.60;99.90;;;;;;5030671;28;20190;-38
2022/06/26 11:23:26;;;;;;;2.40;2.20;;;20.80;99.90;;;;;;5017880;28;20448;-38
2022/06/26 11:26:14;;;;;;;2.53;2.10;;;20.80;99.90;;;;;;5030466;28;20854;-41
2022/06/26 11:28:41;;;;;;;3.20;2.40;;;20.80;99.90;;;;;;5026181;28;20851;-40
2022/06/26 11:31:18;;;;;;;2.37;2.17;;;20.90;99.90;;;;;;5023770;28;20434;-39
2022/06/26 11:33:44;;;;;;;2.63;2.40;;;20.90;99.90;;;;;;5026341;28;20428;-37
2022/06/26 11:36:12;;;;;;;3.10;2.03;;;21.00;99.90;;;;;;5028900;28;20437;-41
2022/06/26 11:38:38;;;;;;;5.40;2.37;;;21.00;99.90;;;;;;5020216;28;20190;-42
2022/06/26 11:41:08;;;;;;;2.80;2.10;;;21.10;99.90;;;;;;5030247;28;20532;-40
2022/06/26 11:43:34;;;;;;;5.10;2.60;;;21.20;99.90;;;;;;5030517;28;20480;-41
2022/06/26 11:46:04;;;;;;;4.33;2.30;;;21.20;99.90;;;;;;5017642;28;20458;-40
2022/06/26 11:48:31;;;;;;;2.40;2.20;;;21.20;99.90;;;;;;5021693;28;20468;-42
2022/06/26 11:50:58;;;;;;;3.77;2.10;;;21.30;99.90;;;;;;5023176;28;21051;-39
2022/06/26 11:53:26;;;;;;;3.10;2.33;;;21.30;99.90;;;;;;5026222;28;20421;-39
2022/06/26 11:55:58;;;;;;;5.30;2.67;;;21.40;99.90;;;;;;5023459;28;20468;-41
2022/06/26 11:58:26;;;;;;;2.37;2.17;;;21.40;99.90;;;;;;5029534;28;20429;-42
2022/06/26 12:01:10;;;;;;;2.70;2.00;;;21.50;99.90;;;;;;5018657;28;20445;-44
2022/06/26 12:03:47;;;;;;;3.80;2.23;;;21.60;99.90;;;;;;5023093;28;20805;-41
2022/06/26 12:06:25;;;;;;;2.73;2.43;;;21.60;99.90;;;;;;5020321;28;21006;-44
2022/06/26 12:08:51;;;;;;;4.70;2.13;;;21.60;99.90;;;;;;5016615;28;20461;-42
2022/06/26 12:11:17;;;;;;;2.43;2.10;;;21.60;99.90;;;;;;5023114;28;20448;-41
2022/06/26 12:13:43;;;;;;;2.23;2.13;;;21.50;99.90;;;;;;5029224;28;20598;-45
2022/06/26 12:16:10;;;;;;;2.60;1.80;;;21.50;99.90;;;;;;5027169;28;20198;-42
2022/06/26 12:18:40;;;;;;;2.10;1.90;;;21.50;99.90;;;;;;5029161;28;20425;-42
2022/06/26 12:21:18;;;;;;;1.90;1.80;;;21.50;99.90;;;;;;5029553;28;20994;-40
2022/06/26 12:23:47;;;;;;;2.40;2.00;;;21.40;99.90;;;;;;5025397;28;20463;-38
2022/06/26 12:26:16;;;;;;;3.30;2.27;;;21.40;99.90;;;;;;5029675;28;20777;-39
2022/06/26 12:28:44;;;;;;;2.40;2.20;;;21.40;99.90;;;;;;5021284;28;20488;-39
2022/06/26 12:31:12;;;;;;;2.67;2.30;;;21.40;99.90;;;;;;5025271;28;20429;-39
2022/06/26 12:33:37;;;;;;;2.17;1.97;;;21.40;99.90;;;;;;5022161;28;20856;-42
2022/06/26 12:36:03;;;;;;;3.43;2.40;;;21.40;99.90;;;;;;5022274;28;20456;-41
2022/06/26 12:38:32;;;;;;;2.30;2.10;;;21.40;99.90;;;;;;5021635;28;20285;-40
2022/06/26 12:40:57;;;;;;;2.30;2.10;;;21.40;99.90;;;;;;5029678;28;20432;-43
2022/06/26 12:43:23;;;;;;;2.00;1.80;;;21.40;99.90;;;;;;5020482;28;20813;-42
2022/06/26 12:45:49;;;;;;;4.23;1.90;;;21.40;99.90;;;;;;5027903;28;20249;-41
2022/06/26 12:48:14;;;;;;;2.00;1.63;;;21.30;99.90;;;;;;5025560;28;20264;-41
2022/06/26 12:50:41;;;;;;;1.87;1.47;;;21.30;99.90;;;;;;5027674;28;20182;-41
2022/06/26 12:53:06;;;;;;;2.63;2.07;;;21.40;99.90;;;;;;5024174;28;20191;-42
2022/06/26 12:55:32;;;;;;;2.27;2.10;;;21.40;99.90;;;;;;5029598;28;20905;-42
2022/06/26 12:57:58;;;;;;;2.70;1.97;;;21.40;99.90;;;;;;5028727;28;20197;-42